Ontario, OR

5:31 PM MDT on April 01, 2015 (GMT -0600)
Payette Foothills | | Change Station
CLOSE
Current Station
Personal Weather Station
Location: Payette, ID
Elevation: 2209 ft
Nearby Weather Stations

Elev 2209 ft 44.08 °N, 116.92 °W | Updated 2 minutes ago

Scattered Clouds
Scattered Clouds
47.5 °F
Feels Like 48 °F
N
0.0
Wind Variable Wind from SSW
Gusts 6.3 mph

Today
High -- | Low -- °F
--% Chance of Precip.
Yesterday
High -- | Low -- °F
Precip. -- in
7:29 AM 8:14 PM
Waxing Gibbous, 94% visible
Pressure 30.18 in
Visibility 10.0 miles
Clouds Scattered Clouds 11000 ft
Windchill 48 °F
Dew Point 32 °F
Humidity 28%
Rainfall 0.00 in
Snow Depth Not available.
UV 3 out of 12
Pollen 7.10 out of 12
Air Quality Not available.
Flu Activity Not available.
METAR KONO 012253Z AUTO 33008KT 10SM SCT110 11/M03 A3015 RMK AO2 SLP220 T01111033

More Conditions Fewer Conditions

Pressure 30.18 in
Visibility 10.0 miles
Clouds Scattered Clouds 11000 ft
Windchill 48 °F
Dew Point 32 °F
Humidity 28%
Rainfall 0.00 in
Snow Depth Not available.
UV 3 out of 12
Pollen 7.10 out of 12
Air Quality Not available.
Flu Activity Not available.
METAR KONO 012253Z AUTO 33008KT 10SM SCT110 11/M03 A3015 RMK AO2 SLP220 T01111033

More Conditions Fewer Conditions

10-Day Weather Forecast

Almanac

Astronomy

Apr. 01, 2015 Rise Set
Actual Time
Civil Twilight
Nautical Twilight
Astronomical Twilight
Moon
Length of Visible Light
Length of Day
Tomorrow will be .
, % of the Moon is Illuminated

Today's Extremes

State Highs State Lows

Community

WunderPhotos

Upload Photos

1,810,123 photos uploaded!

WunderBlogs® & News

Nearby

Air Quality

  Air Quality AQ Index Pollutant
Not available.

Snow Depth

Station Depth Elevation

Earthquake Activity

City Distance Mag. Time & Date
Minimum magnitude displayed is 2.5.

Coastal Water Temperatures

Place Temperature

Stations

Nearby Weather Stations

Station Location Temp. Windchill Dew Point Humidity Wind Precip. Elev Updated Type